sensor_id;sensor_type;location;lat;lon;timestamp;pressure;altitude;pressure_sealevel;temperature;humidity
15444;BME280;7822;48.146;11.576;2024-02-23T00:00:56;93272.41;;;15.44;64.43
15444;BME280;7822;48.146;11.576;2024-02-23T00:03:24;93265.53;;;15.43;64.48
15444;BME280;7822;48.146;11.576;2024-02-23T00:05:52;93268.16;;;15.43;64.78
15444;BME280;7822;48.146;11.576;2024-02-23T00:08:20;93273.19;;;15.44;64.65
15444;BME280;7822;48.146;11.576;2024-02-23T00:10:48;93274.22;;;15.43;64.66
15444;BME280;7822;48.146;11.576;2024-02-23T00:13:16;93284.66;;;15.43;64.74
15444;BME280;7822;48.146;11.576;2024-02-23T00:15:43;93282.88;;;15.44;64.42
15444;BME280;7822;48.146;11.576;2024-02-23T00:18:12;93285.47;;;15.44;64.49
15444;BME280;7822;48.146;11.576;2024-02-23T00:20:42;93285.47;;;15.44;64.61
15444;BME280;7822;48.146;11.576;2024-02-23T00:23:10;93287.06;;;15.45;64.47
15444;BME280;7822;48.146;11.576;2024-02-23T00:25:38;93282.88;;;15.44;64.53
15444;BME280;7822;48.146;11.576;2024-02-23T00:28:06;93283.66;;;15.44;64.50
15444;BME280;7822;48.146;11.576;2024-02-23T00:30:34;93290.72;;;15.44;64.41
15444;BME280;7822;48.146;11.576;2024-02-23T00:33:02;93295.94;;;15.44;64.54
15444;BME280;7822;48.146;11.576;2024-02-23T00:35:31;93290.72;;;15.44;64.37
15444;BME280;7822;48.146;11.576;2024-02-23T00:37:59;93285.47;;;15.44;64.57
15444;BME280;7822;48.146;11.576;2024-02-23T00:40:27;93288.09;;;15.44;64.63
15444;BME280;7822;48.146;11.576;2024-02-23T00:42:55;93288.09;;;15.44;64.56
15444;BME280;7822;48.146;11.576;2024-02-23T00:45:22;93295.13;;;15.43;64.49
15444;BME280;7822;48.146;11.576;2024-02-23T00:47:50;93296.91;;;15.43;64.58
15444;BME280;7822;48.146;11.576;2024-02-23T00:50:18;93304.72;;;15.43;64.44
15444;BME280;7822;48.146;11.576;2024-02-23T00:52:47;93307.34;;;15.43;64.74
15444;BME280;7822;48.146;11.576;2024-02-23T00:55:15;93303.91;;;15.42;64.41
15444;BME280;7822;48.146;11.576;2024-02-23T00:57:43;93318.63;;;15.43;64.67
15444;BME280;7822;48.146;11.576;2024-02-23T01:00:12;93316.03;;;15.43;64.68
15444;BME280;7822;48.146;11.576;2024-02-23T01:02:40;93311.75;;;15.42;64.67
15444;BME280;7822;48.146;11.576;2024-02-23T01:05:08;93310.97;;;15.42;64.50
15444;BME280;7822;48.146;11.576;2024-02-23T01:07:37;93315.19;;;15.43;64.57
15444;BME280;7822;48.146;11.576;2024-02-23T01:10:07;93330.84;;;15.43;64.64
15444;BME280;7822;48.146;11.576;2024-02-23T01:12:36;93329.91;;;15.44;64.27
15444;BME280;7822;48.146;11.576;2024-02-23T01:15:04;93312.56;;;15.43;64.52
15444;BME280;7822;48.146;11.576;2024-02-23T01:17:32;93332.66;;;15.42;64.36
15444;BME280;7822;48.146;11.576;2024-02-23T01:20:00;93325.63;;;15.43;64.65
15444;BME280;7822;48.146;11.576;2024-02-23T01:22:28;93330.06;;;15.42;64.23
15444;BME280;7822;48.146;11.576;2024-02-23T01:24:55;93333.47;;;15.43;64.66
15444;BME280;7822;48.146;11.576;2024-02-23T01:27:24;93340.50;;;15.42;64.49
15444;BME280;7822;48.146;11.576;2024-02-23T01:29:52;93344.78;;;15.43;64.49
15444;BME280;7822;48.146;11.576;2024-02-23T01:32:20;93342.97;;;15.44;64.75
15444;BME280;7822;48.146;11.576;2024-02-23T01:34:47;93358.66;;;15.44;64.37
15444;BME280;7822;48.146;11.576;2024-02-23T01:37:15;93365.69;;;15.43;64.50
15444;BME280;7822;48.146;11.576;2024-02-23T01:39:43;93358.78;;;15.42;64.59
15444;BME280;7822;48.146;11.576;2024-02-23T01:42:11;93351.75;;;15.43;64.74
15444;BME280;7822;48.146;11.576;2024-02-23T01:44:40;93350.81;;;15.44;64.38
15444;BME280;7822;48.146;11.576;2024-02-23T01:47:08;93344.78;;;15.43;64.44
15444;BME280;7822;48.146;11.576;2024-02-23T01:49:35;93333.47;;;15.43;64.52
15444;BME280;7822;48.146;11.576;2024-02-23T01:52:03;93341.31;;;15.43;64.58
15444;BME280;7822;48.146;11.576;2024-02-23T01:54:32;93352.59;;;15.43;64.76
15444;BME280;7822;48.146;11.576;2024-02-23T01:57:01;93341.31;;;15.43;64.55
15444;BME280;7822;48.146;11.576;2024-02-23T01:59:50;93347.38;;;15.43;64.49
15444;BME280;7822;48.146;11.576;2024-02-23T02:02:19;93352.59;;;15.43;64.60
15444;BME280;7822;48.146;11.576;2024-02-23T02:04:46;93344.78;;;15.43;64.62
15444;BME280;7822;48.146;11.576;2024-02-23T02:07:14;93345.72;;;15.42;64.57
15444;BME280;7822;48.146;11.576;2024-02-23T02:09:42;93350.16;;;15.42;64.56
15444;BME280;7822;48.146;11.576;2024-02-23T02:12:10;93345.94;;;15.41;64.58
15444;BME280;7822;48.146;11.576;2024-02-23T02:14:37;93357.19;;;15.41;64.63
15444;BME280;7822;48.146;11.576;2024-02-23T02:17:06;93355.56;;;15.40;64.68
15444;BME280;7822;48.146;11.576;2024-02-23T02:19:34;93354.59;;;15.41;64.56
15444;BME280;7822;48.146;11.576;2024-02-23T02:22:02;93362.44;;;15.41;64.35
15444;BME280;7822;48.146;11.576;2024-02-23T02:24:29;93365.03;;;15.41;64.55
15444;BME280;7822;48.146;11.576;2024-02-23T02:26:58;93373.69;;;15.42;64.78
15444;BME280;7822;48.146;11.576;2024-02-23T02:29:25;93365.84;;;15.42;64.78
15444;BME280;7822;48.146;11.576;2024-02-23T02:31:53;93367.81;;;15.40;64.71
15444;BME280;7822;48.146;11.576;2024-02-23T02:34:22;93370.44;;;15.40;64.67
15444;BME280;7822;48.146;11.576;2024-02-23T02:36:50;93379.09;;;15.40;64.65
15444;BME280;7822;48.146;11.576;2024-02-23T02:39:18;93378.28;;;15.40;64.60
15444;BME280;7822;48.146;11.576;2024-02-23T02:41:48;93380.09;;;15.39;64.40
15444;BME280;7822;48.146;11.576;2024-02-23T02:44:16;93379.09;;;15.40;64.80
15444;BME280;7822;48.146;11.576;2024-02-23T02:46:43;93384.31;;;15.40;64.58
15444;BME280;7822;48.146;11.576;2024-02-23T02:49:12;93389.75;;;15.39;64.78
15444;BME280;7822;48.146;11.576;2024-02-23T02:51:41;93386.94;;;15.40;64.41
15444;BME280;7822;48.146;11.576;2024-02-23T02:54:09;93388.56;;;15.41;64.22
15444;BME280;7822;48.146;11.576;2024-02-23T02:56:42;93385.34;;;15.39;64.47
15444;BME280;7822;48.146;11.576;2024-02-23T02:59:09;93391.34;;;15.40;64.50
15444;BME280;7822;48.146;11.576;2024-02-23T03:01:37;93388.72;;;15.40;64.61
15444;BME280;7822;48.146;11.576;2024-02-23T03:04:05;93393.94;;;15.40;64.80
15444;BME280;7822;48.146;11.576;2024-02-23T03:06:33;93387.94;;;15.39;64.84
15444;BME280;7822;48.146;11.576;2024-02-23T03:09:02;93385.34;;;15.39;64.82
15444;BME280;7822;48.146;11.576;2024-02-23T03:11:29;93386.94;;;15.40;64.65
15444;BME280;7822;48.146;11.576;2024-02-23T03:13:57;93381.69;;;15.40;64.90
15444;BME280;7822;48.146;11.576;2024-02-23T03:16:25;93387.94;;;15.39;64.81
15444;BME280;7822;48.146;11.576;2024-02-23T03:18:53;93390.56;;;15.39;64.83
15444;BME280;7822;48.146;11.576;2024-02-23T03:21:21;93391.34;;;15.40;64.45
15444;BME280;7822;48.146;11.576;2024-02-23T03:23:49;93407.03;;;15.40;64.70
15444;BME280;7822;48.146;11.576;2024-02-23T03:26:18;93392.34;;;15.39;64.65
15444;BME280;7822;48.146;11.576;2024-02-23T03:28:45;93394.16;;;15.38;64.93
15444;BME280;7822;48.146;11.576;2024-02-23T03:31:15;93387.94;;;15.39;64.68
15444;BME280;7822;48.146;11.576;2024-02-23T03:33:42;93385.34;;;15.39;64.66
15444;BME280;7822;48.146;11.576;2024-02-23T03:36:10;93391.34;;;15.40;64.47
15444;BME280;7822;48.146;11.576;2024-02-23T03:38:38;93389.75;;;15.39;64.52
15444;BME280;7822;48.146;11.576;2024-02-23T03:41:06;93382.91;;;15.38;64.73
15444;BME280;7822;48.146;11.576;2024-02-23T03:43:35;93393.19;;;15.39;64.67
15444;BME280;7822;48.146;11.576;2024-02-23T03:46:06;93391.53;;;15.38;64.70
15444;BME280;7822;48.146;11.576;2024-02-23T03:48:33;93398.41;;;15.39;64.75
15444;BME280;7822;48.146;11.576;2024-02-23T03:51:03;93395.78;;;15.39;64.74
15444;BME280;7822;48.146;11.576;2024-02-23T03:53:31;93404.63;;;15.38;64.84
15444;BME280;7822;48.146;11.576;2024-02-23T03:55:59;93407.22;;;15.38;64.84
15444;BME280;7822;48.146;11.576;2024-02-23T03:58:27;93406.41;;;15.38;64.72
15444;BME280;7822;48.146;11.576;2024-02-23T04:00:56;93407.22;;;15.38;64.78
15444;BME280;7822;48.146;11.576;2024-02-23T04:03:23;93403.81;;;15.38;64.75
15444;BME280;7822;48.146;11.576;2024-02-23T04:05:51;93409.84;;;15.38;64.70
15444;BME280;7822;48.146;11.576;2024-02-23T04:08:19;93408.03;;;15.39;64.61
15444;BME280;7822;48.146;11.576;2024-02-23T04:10:46;93413.25;;;15.39;64.63
15444;BME280;7822;48.146;11.576;2024-02-23T04:13:14;93412.44;;;15.38;64.90
15444;BME280;7822;48.146;11.576;2024-02-23T04:15:44;93406.41;;;15.38;64.88
15444;BME280;7822;48.146;11.576;2024-02-23T04:18:13;93404.63;;;15.38;64.78
15444;BME280;7822;48.146;11.576;2024-02-23T04:20:41;93411.63;;;15.38;64.66
15444;BME280;7822;48.146;11.576;2024-02-23T04:23:09;93400.41;;;15.37;64.92
15444;BME280;7822;48.146;11.576;2024-02-23T04:25:36;93405.63;;;15.37;64.95
15444;BME280;7822;48.146;11.576;2024-02-23T04:28:04;93404.63;;;15.38;64.91
15444;BME280;7822;48.146;11.576;2024-02-23T04:30:32;93420.28;;;15.38;64.74
15444;BME280;7822;48.146;11.576;2024-02-23T04:33:00;93418.50;;;15.39;64.57
15444;BME280;7822;48.146;11.576;2024-02-23T04:35:29;93403.00;;;15.37;64.64
15444;BME280;7822;48.146;11.576;2024-02-23T04:37:56;93403.81;;;15.38;64.60
15444;BME280;7822;48.146;11.576;2024-02-23T04:40:24;93420.28;;;15.38;64.65
15444;BME280;7822;48.146;11.576;2024-02-23T04:42:52;93410.84;;;15.37;64.98
15444;BME280;7822;48.146;11.576;2024-02-23T04:45:19;93402.22;;;15.37;64.80
15444;BME280;7822;48.146;11.576;2024-02-23T04:47:47;93416.09;;;15.37;64.72
15444;BME280;7822;48.146;11.576;2024-02-23T04:50:15;93433.56;;;15.37;64.95
15444;BME280;7822;48.146;11.576;2024-02-23T04:52:44;93424.69;;;15.38;64.98
15444;BME280;7822;48.146;11.576;2024-02-23T04:55:12;93423.91;;;15.37;64.80
15444;BME280;7822;48.146;11.576;2024-02-23T04:57:39;93424.91;;;15.36;64.97
15444;BME280;7822;48.146;11.576;2024-02-23T05:00:08;93420.50;;;15.37;64.72
15444;BME280;7822;48.146;11.576;2024-02-23T05:02:35;93423.91;;;15.37;64.88
15444;BME280;7822;48.146;11.576;2024-02-23T05:05:04;93406.41;;;15.38;64.73
15444;BME280;7822;48.146;11.576;2024-02-23T05:07:32;93405.44;;;15.39;64.72
15444;BME280;7822;48.146;11.576;2024-02-23T05:10:01;93400.19;;;15.39;64.71
15444;BME280;7822;48.146;11.576;2024-02-23T05:12:29;93396.56;;;15.40;64.77
15444;BME280;7822;48.146;11.576;2024-02-23T05:14:56;93402.44;;;15.42;64.76
15444;BME280;7822;48.146;11.576;2024-02-23T05:17:24;93405.03;;;15.42;64.58
15444;BME280;7822;48.146;11.576;2024-02-23T05:19:52;93409.25;;;15.43;64.66
15444;BME280;7822;48.146;11.576;2024-02-23T05:22:20;93409.25;;;15.43;64.65
15444;BME280;7822;48.146;11.576;2024-02-23T05:24:47;93413.53;;;15.44;64.63
15444;BME280;7822;48.146;11.576;2024-02-23T05:27:17;93413.53;;;15.44;64.64
15444;BME280;7822;48.146;11.576;2024-02-23T05:29:44;93405.69;;;15.44;64.87
15444;BME280;7822;48.146;11.576;2024-02-23T05:32:12;93409.06;;;15.44;64.70
15444;BME280;7822;48.146;11.576;2024-02-23T05:34:39;93410.69;;;15.45;64.80
15444;BME280;7822;48.146;11.576;2024-02-23T05:37:07;93410.91;;;15.44;64.55
15444;BME280;7822;48.146;11.576;2024-02-23T05:39:35;93417.72;;;15.45;64.65
15444;BME280;7822;48.146;11.576;2024-02-23T05:42:04;93414.31;;;15.44;64.53
15444;BME280;7822;48.146;11.576;2024-02-23T05:44:33;93419.53;;;15.44;64.92
15444;BME280;7822;48.146;11.576;2024-02-23T05:47:00;93417.72;;;15.45;64.83
15444;BME280;7822;48.146;11.576;2024-02-23T05:49:28;93419.53;;;15.44;64.87
15444;BME280;7822;48.146;11.576;2024-02-23T05:51:56;93417.72;;;15.45;64.82
15444;BME280;7822;48.146;11.576;2024-02-23T05:54:23;93429.00;;;15.45;64.94
15444;BME280;7822;48.146;11.576;2024-02-23T05:56:51;93431.81;;;15.44;64.56
15444;BME280;7822;48.146;11.576;2024-02-23T05:59:19;93444.66;;;15.45;64.95
15444;BME280;7822;48.146;11.576;2024-02-23T06:01:48;93452.72;;;15.44;64.73
15444;BME280;7822;48.146;11.576;2024-02-23T06:04:18;93450.09;;;15.44;64.95
15444;BME280;7822;48.146;11.576;2024-02-23T06:06:46;93452.72;;;15.44;64.77
15444;BME280;7822;48.146;11.576;2024-02-23T06:09:14;93445.03;;;15.42;65.05
15444;BME280;7822;48.146;11.576;2024-02-23T06:11:42;93444.25;;;15.42;65.06
15444;BME280;7822;48.146;11.576;2024-02-23T06:14:10;93442.41;;;15.42;64.85
15444;BME280;7822;48.146;11.576;2024-02-23T06:16:38;93445.84;;;15.43;64.85
15444;BME280;7822;48.146;11.576;2024-02-23T06:19:08;93456.28;;;15.43;64.91
15444;BME280;7822;48.146;11.576;2024-02-23T06:21:36;93461.72;;;15.41;64.72
15444;BME280;7822;48.146;11.576;2024-02-23T06:24:04;93468.53;;;15.42;64.68
15444;BME280;7822;48.146;11.576;2024-02-23T06:26:31;93466.94;;;15.41;64.74
15444;BME280;7822;48.146;11.576;2024-02-23T06:28:59;93470.38;;;15.42;65.08
15444;BME280;7822;48.146;11.576;2024-02-23T06:31:27;93464.34;;;15.41;64.96
15444;BME280;7822;48.146;11.576;2024-02-23T06:33:54;93466.13;;;15.41;64.70
15444;BME280;7822;48.146;11.576;2024-02-23T06:36:24;93468.75;;;15.41;64.84
15444;BME280;7822;48.146;11.576;2024-02-23T06:38:51;93472.16;;;15.41;64.83
15444;BME280;7822;48.146;11.576;2024-02-23T06:41:19;93478.22;;;15.42;64.87
15444;BME280;7822;48.146;11.576;2024-02-23T06:43:47;93469.56;;;15.41;64.76
15444;BME280;7822;48.146;11.576;2024-02-23T06:46:14;93469.56;;;15.41;64.57
15444;BME280;7822;48.146;11.576;2024-02-23T06:48:45;93459.09;;;15.41;64.63
15444;BME280;7822;48.146;11.576;2024-02-23T06:51:13;93463.53;;;15.41;64.57
15444;BME280;7822;48.146;11.576;2024-02-23T06:53:44;93466.13;;;15.41;64.73
15444;BME280;7822;48.146;11.576;2024-02-23T06:56:11;93453.88;;;15.41;64.52
15444;BME280;7822;48.146;11.576;2024-02-23T06:58:40;93466.94;;;15.41;64.72
15444;BME280;7822;48.146;11.576;2024-02-23T07:01:07;93470.38;;;15.42;64.65
15444;BME280;7822;48.146;11.576;2024-02-23T07:03:39;93470.38;;;15.42;64.55
15444;BME280;7822;48.146;11.576;2024-02-23T07:06:08;93471.16;;;15.42;64.81
15444;BME280;7822;48.146;11.576;2024-02-23T07:08:37;93480.44;;;15.45;64.85
15444;BME280;7822;48.146;11.576;2024-02-23T07:11:06;93487.47;;;15.44;64.52
15444;BME280;7822;48.146;11.576;2024-02-23T07:13:34;93489.31;;;15.44;64.42
15444;BME280;7822;48.146;11.576;2024-02-23T07:16:02;93487.66;;;15.43;64.55
15444;BME280;7822;48.146;11.576;2024-02-23T07:18:30;93498.94;;;15.43;64.74
15444;BME280;7822;48.146;11.576;2024-02-23T07:20:59;93491.28;;;15.42;64.66
15444;BME280;7822;48.146;11.576;2024-02-23T07:23:28;93496.50;;;15.42;64.72
15444;BME280;7822;48.146;11.576;2024-02-23T07:25:55;93505.94;;;15.43;64.83
15444;BME280;7822;48.146;11.576;2024-02-23T07:28:25;93503.31;;;15.43;64.50
15444;BME280;7822;48.146;11.576;2024-02-23T07:30:53;93511.16;;;15.43;64.54
15444;BME280;7822;48.146;11.576;2024-02-23T07:33:21;93511.38;;;15.41;64.70
15444;BME280;7822;48.146;11.576;2024-02-23T07:35:49;93517.41;;;15.42;64.84
15444;BME280;7822;48.146;11.576;2024-02-23T07:38:17;93518.19;;;15.42;64.77
15444;BME280;7822;48.146;11.576;2024-02-23T07:40:46;93506.94;;;15.42;64.68
15444;BME280;7822;48.146;11.576;2024-02-23T07:43:13;93506.13;;;15.41;64.70
15444;BME280;7822;48.146;11.576;2024-02-23T07:45:43;93507.72;;;15.42;64.66
15444;BME280;7822;48.146;11.576;2024-02-23T07:48:10;93509.56;;;15.42;64.82
15444;BME280;7822;48.146;11.576;2024-02-23T07:50:38;93503.53;;;15.41;64.80
15444;BME280;7822;48.146;11.576;2024-02-23T07:53:06;93497.47;;;15.41;64.76
15444;BME280;7822;48.146;11.576;2024-02-23T07:55:34;93504.34;;;15.42;64.79
15444;BME280;7822;48.146;11.576;2024-02-23T07:58:01;93504.34;;;15.42;64.81
15444;BME280;7822;48.146;11.576;2024-02-23T08:00:29;93492.25;;;15.41;64.78
15444;BME280;7822;48.146;11.576;2024-02-23T08:02:58;93486.22;;;15.40;64.63
15444;BME280;7822;48.146;11.576;2024-02-23T08:05:26;93490.47;;;15.41;64.77
15444;BME280;7822;48.146;11.576;2024-02-23T08:07:54;93482.63;;;15.41;64.80
15444;BME280;7822;48.146;11.576;2024-02-23T08:10:22;93472.97;;;15.42;64.93
15444;BME280;7822;48.146;11.576;2024-02-23T08:12:50;93469.56;;;15.41;64.99
15444;BME280;7822;48.146;11.576;2024-02-23T08:15:17;93483.25;;;15.43;64.80
15444;BME280;7822;48.146;11.576;2024-02-23T08:17:45;93484.41;;;15.41;64.72
15444;BME280;7822;48.146;11.576;2024-02-23T08:20:14;93502.50;;;15.42;64.68
15444;BME280;7822;48.146;11.576;2024-02-23T08:22:42;93474.56;;;15.43;64.87
15444;BME280;7822;48.146;11.576;2024-02-23T08:25:10;93455.34;;;15.44;64.89
15444;BME280;7822;48.146;11.576;2024-02-23T08:27:41;93464.13;;;15.43;64.76
15444;BME280;7822;48.146;11.576;2024-02-23T08:30:10;93471.00;;;15.44;64.66
15444;BME280;7822;48.146;11.576;2024-02-23T08:32:38;93470.19;;;15.43;64.78
15444;BME280;7822;48.146;11.576;2024-02-23T08:35:06;93475.41;;;15.43;64.85
15444;BME280;7822;48.146;11.576;2024-02-23T08:37:37;93485.88;;;15.43;64.87
15444;BME280;7822;48.146;11.576;2024-02-23T08:40:07;93470.38;;;15.42;64.68
15444;BME280;7822;48.146;11.576;2024-02-23T08:42:35;93482.25;;;15.44;64.68
15444;BME280;7822;48.146;11.576;2024-02-23T08:45:03;93484.06;;;15.44;64.78
15444;BME280;7822;48.146;11.576;2024-02-23T08:47:30;93478.03;;;15.43;64.71
15444;BME280;7822;48.146;11.576;2024-02-23T08:50:02;93481.47;;;15.44;64.79
15444;BME280;7822;48.146;11.576;2024-02-23T08:52:31;93491.91;;;15.44;64.80
15444;BME280;7822;48.146;11.576;2024-02-23T08:55:00;93505.75;;;15.44;64.52
15444;BME280;7822;48.146;11.576;2024-02-23T08:57:27;93518.66;;;15.46;64.73
15444;BME280;7822;48.146;11.576;2024-02-23T08:59:55;93528.50;;;15.44;64.49
15444;BME280;7822;48.146;11.576;2024-02-23T09:02:24;93520.66;;;15.44;64.86
15444;BME280;7822;48.146;11.576;2024-02-23T09:04:52;93524.22;;;15.43;64.95
15444;BME280;7822;48.146;11.576;2024-02-23T09:07:19;93520.66;;;15.44;64.71
15444;BME280;7822;48.146;11.576;2024-02-23T09:09:48;93532.91;;;15.43;64.89
15444;BME280;7822;48.146;11.576;2024-02-23T09:12:18;93546.78;;;15.44;64.55
15444;BME280;7822;48.146;11.576;2024-02-23T09:14:45;93555.59;;;15.43;64.90
15444;BME280;7822;48.146;11.576;2024-02-23T09:17:14;93558.03;;;15.44;64.78
15444;BME280;7822;48.146;11.576;2024-02-23T09:19:41;93556.44;;;15.43;64.74
15444;BME280;7822;48.146;11.576;2024-02-23T09:22:09;93558.19;;;15.43;64.76
15444;BME280;7822;48.146;11.576;2024-02-23T09:24:39;93549.53;;;15.42;64.71
15444;BME280;7822;48.146;11.576;2024-02-23T09:27:06;93564.25;;;15.43;64.77
15444;BME280;7822;48.146;11.576;2024-02-23T09:29:35;93568.66;;;15.43;64.72
15444;BME280;7822;48.146;11.576;2024-02-23T09:32:04;93569.50;;;15.43;64.69
15444;BME280;7822;48.146;11.576;2024-02-23T09:34:32;93561.81;;;15.42;64.70
15444;BME280;7822;48.146;11.576;2024-02-23T09:37:00;93557.38;;;15.42;64.69
15444;BME280;7822;48.146;11.576;2024-02-23T09:39:28;93550.56;;;15.41;64.71
15444;BME280;7822;48.146;11.576;2024-02-23T09:41:56;93552.16;;;15.42;64.41
15444;BME280;7822;48.146;11.576;2024-02-23T09:44:26;93548.75;;;15.42;64.62
15444;BME280;7822;48.146;11.576;2024-02-23T09:47:01;93558.19;;;15.43;64.48
15444;BME280;7822;48.146;11.576;2024-02-23T09:49:37;93562.59;;;15.42;64.55
15444;BME280;7822;48.146;11.576;2024-02-23T09:52:07;93563.44;;;15.43;64.81
15444;BME280;7822;48.146;11.576;2024-02-23T09:54:36;93565.22;;;15.42;64.78
15444;BME280;7822;48.146;11.576;2024-02-23T09:57:08;93563.63;;;15.41;64.56
15444;BME280;7822;48.146;11.576;2024-02-23T09:59:36;93563.44;;;15.43;64.71
15444;BME280;7822;48.146;11.576;2024-02-23T10:02:08;93561.66;;;15.43;64.86
15444;BME280;7822;48.146;11.576;2024-02-23T10:04:38;93564.25;;;15.43;64.80
15444;BME280;7822;48.146;11.576;2024-02-23T10:07:07;93562.47;;;15.44;64.75
15444;BME280;7822;48.146;11.576;2024-02-23T10:09:35;93570.31;;;15.44;64.87
15444;BME280;7822;48.146;11.576;2024-02-23T10:12:03;93558.19;;;15.43;64.63
15444;BME280;7822;48.146;11.576;2024-02-23T10:14:31;93557.25;;;15.44;64.60
15444;BME280;7822;48.146;11.576;2024-02-23T10:16:59;93551.19;;;15.43;64.65
15444;BME280;7822;48.146;11.576;2024-02-23T10:19:29;93554.63;;;15.44;64.84
15444;BME280;7822;48.146;11.576;2024-02-23T10:21:57;93556.44;;;15.43;64.62
15444;BME280;7822;48.146;11.576;2024-02-23T10:24:25;93540.75;;;15.43;64.73
15444;BME280;7822;48.146;11.576;2024-02-23T10:26:53;93526.84;;;15.43;64.77
15444;BME280;7822;48.146;11.576;2024-02-23T10:29:21;93518.03;;;15.44;64.62
15444;BME280;7822;48.146;11.576;2024-02-23T10:31:51;93518.19;;;15.42;64.73
15444;BME280;7822;48.146;11.576;2024-02-23T10:34:20;93529.44;;;15.43;64.72
15444;BME280;7822;48.146;11.576;2024-02-23T10:36:49;93526.84;;;15.43;64.88
15444;BME280;7822;48.146;11.576;2024-02-23T10:39:18;93531.25;;;15.42;64.39
15444;BME280;7822;48.146;11.576;2024-02-23T10:41:47;93552.97;;;15.43;64.67
15444;BME280;7822;48.146;11.576;2024-02-23T10:44:16;93554.78;;;15.42;64.69
15444;BME280;7822;48.146;11.576;2024-02-23T10:46:45;93552.97;;;15.43;64.68
15444;BME280;7822;48.146;11.576;2024-02-23T10:49:14;93549.53;;;15.42;64.77
15444;BME280;7822;48.146;11.576;2024-02-23T10:51:44;93554.78;;;15.42;64.86
15444;BME280;7822;48.146;11.576;2024-02-23T10:54:15;93553.81;;;15.43;64.73
15444;BME280;7822;48.146;11.576;2024-02-23T10:56:47;93557.38;;;15.42;64.86
15444;BME280;7822;48.146;11.576;2024-02-23T10:59:15;93557.38;;;15.42;64.75
15444;BME280;7822;48.146;11.576;2024-02-23T11:01:47;93566.88;;;15.43;64.55
15444;BME280;7822;48.146;11.576;2024-02-23T11:04:17;93561.81;;;15.42;64.75
15444;BME280;7822;48.146;11.576;2024-02-23T11:06:49;93566.03;;;15.43;64.87
15444;BME280;7822;48.146;11.576;2024-02-23T11:09:20;93554.78;;;15.42;64.81
15444;BME280;7822;48.146;11.576;2024-02-23T11:11:53;93551.19;;;15.43;64.80
15444;BME280;7822;48.146;11.576;2024-02-23T11:14:31;93547.75;;;15.43;64.48
15444;BME280;7822;48.146;11.576;2024-02-23T11:17:00;93542.53;;;15.43;64.49
15444;BME280;7822;48.146;11.576;2024-02-23T11:19:35;93551.38;;;15.42;64.40
15444;BME280;7822;48.146;11.576;2024-02-23T11:22:04;93547.75;;;15.43;64.58
15444;BME280;7822;48.146;11.576;2024-02-23T11:24:44;93553.16;;;15.41;64.86
15444;BME280;7822;48.146;11.576;2024-02-23T11:27:14;93561.81;;;15.42;64.65
15444;BME280;7822;48.146;11.576;2024-02-23T11:29:45;93560.00;;;15.42;64.58
15444;BME280;7822;48.146;11.576;2024-02-23T11:32:14;93564.25;;;15.43;64.53
15444;BME280;7822;48.146;11.576;2024-02-23T11:34:42;93566.03;;;15.43;64.63
15444;BME280;7822;48.146;11.576;2024-02-23T11:37:10;93549.75;;;15.41;64.52
15444;BME280;7822;48.146;11.576;2024-02-23T11:39:38;93552.16;;;15.42;64.53
15444;BME280;7822;48.146;11.576;2024-02-23T11:42:08;93551.19;;;15.43;64.65
15444;BME280;7822;48.146;11.576;2024-02-23T11:44:36;93544.31;;;15.42;64.78
15444;BME280;7822;48.146;11.576;2024-02-23T11:47:04;93552.00;;;15.44;64.79
15444;BME280;7822;48.146;11.576;2024-02-23T11:49:31;93554.63;;;15.44;64.68
15444;BME280;7822;48.146;11.576;2024-02-23T11:51:59;93557.25;;;15.44;64.74
15444;BME280;7822;48.146;11.576;2024-02-23T11:54:28;93555.41;;;15.44;64.66
15444;BME280;7822;48.146;11.576;2024-02-23T11:56:56;93553.63;;;15.45;64.85
15444;BME280;7822;48.146;11.576;2024-02-23T11:59:25;93546.78;;;15.44;64.73
15444;BME280;7822;48.146;11.576;2024-02-23T12:01:52;93545.78;;;15.45;64.71
15444;BME280;7822;48.146;11.576;2024-02-23T12:04:21;93537.13;;;15.44;64.67
15444;BME280;7822;48.146;11.576;2024-02-23T12:06:48;93531.09;;;15.44;64.71
15444;BME280;7822;48.146;11.576;2024-02-23T12:09:16;93543.97;;;15.45;64.58
15444;BME280;7822;48.146;11.576;2024-02-23T12:11:44;93542.34;;;15.44;64.42
15444;BME280;7822;48.146;11.576;2024-02-23T12:14:13;93544.97;;;15.44;64.52
15444;BME280;7822;48.146;11.576;2024-02-23T12:16:42;93550.19;;;15.44;64.44
15444;BME280;7822;48.146;11.576;2024-02-23T12:19:10;93553.63;;;15.45;64.43
15444;BME280;7822;48.146;11.576;2024-02-23T12:21:38;93548.59;;;15.43;64.38
15444;BME280;7822;48.146;11.576;2024-02-23T12:24:06;93541.56;;;15.44;64.71
15444;BME280;7822;48.146;11.576;2024-02-23T12:26:35;93518.81;;;15.44;64.56
15444;BME280;7822;48.146;11.576;2024-02-23T12:29:03;93513.59;;;15.44;64.79
15444;BME280;7822;48.146;11.576;2024-02-23T12:31:31;93506.78;;;15.43;64.52
15444;BME280;7822;48.146;11.576;2024-02-23T12:34:00;93510.22;;;15.44;64.48
15444;BME280;7822;48.146;11.576;2024-02-23T12:36:29;93507.59;;;15.44;64.67
15444;BME280;7822;48.146;11.576;2024-02-23T12:38:57;93515.22;;;15.45;64.15
15444;BME280;7822;48.146;11.576;2024-02-23T12:41:25;93516.22;;;15.44;64.49
15444;BME280;7822;48.146;11.576;2024-02-23T12:43:52;93509.19;;;15.45;64.51
15444;BME280;7822;48.146;11.576;2024-02-23T12:46:20;93513.59;;;15.44;64.63
15444;BME280;7822;48.146;11.576;2024-02-23T12:48:48;93526.66;;;15.44;64.48
15444;BME280;7822;48.146;11.576;2024-02-23T12:51:17;93530.91;;;15.45;64.58
15444;BME280;7822;48.146;11.576;2024-02-23T12:53:45;93521.44;;;15.44;64.54
15444;BME280;7822;48.146;11.576;2024-02-23T12:56:13;93513.59;;;15.44;64.70
15444;BME280;7822;48.146;11.576;2024-02-23T12:58:43;93500.53;;;15.44;64.05
15444;BME280;7822;48.146;11.576;2024-02-23T13:01:11;93492.69;;;15.44;64.26
15444;BME280;7822;48.146;11.576;2024-02-23T13:03:39;93489.31;;;15.44;64.62
15444;BME280;7822;48.146;11.576;2024-02-23T13:06:08;93497.91;;;15.44;64.35